Wheeler Sack Army Air Field
KGTB : now visible

Airfield :











YOU CAN JOIN US ON...

 
LOGIN :

Register | Disclaimer

   EN    FR    IT 

 









Legend :    VFR   Marginal VFR   IFR   Intensive IFR   Very Intensive IFR
Visi :
Ceiling :
>= 8 km
>= 3000ft
5 to 8 km
1000 to 3000 ft
1500m to 5 km
500 to 1000 ft
800 to 1500m
200 to 500 ft
< 800m
< 200 ft
Symbols :   Thunderstorms  Fog  Heavy snow  Heavy precipitations  Wind > 20 kt






- Airport Elevation : 688 ft


KGTB - Wheeler Sack Army Air Field

CURRENT METAR :
  • 240901Z 23012KT 10SM -RA SCT010 OVC038 09/08 A2971 RMK DZE01RAB01 SLP061 $

EXPIRED METARs :
  • 240831Z AUTO 23009KT 10SM -DZ SCT008 BKN012 OVC042 09/08 A2971 RMK AO2 DZE0758DZB31 CIG 012V042 BKN V SCT CIG 009 RWY03 SLP061 $
  • 240810Z AUTO 25008KT 10SM SCT008 BKN013 OVC020 09/08 A2972 RMK AO2 DZE0758 CIG 011V015 CIG 008 RWY03 SLP064 $
  • 240745Z AUTO 24007KT 10SM -RA OVC013 09/08 A2972 RMK AO2 RAE08DZB08E12RAB12 CIG 012 RWY03 SLPNO $
  • 240655Z AUTO 25006KT 10SM -RA BKN019 OVC032 09/08 A2973 RMK AO2 RAE01DZB01E14RAB14 SLPNO P0001 T00900078 $
  • 240645Z AUTO 24006KT 10SM -RA BKN019 BKN032 OVC042 09/08 A2973 RMK AO2 RAE01DZB01E14RAB14 CIG 019V032 SLPNO $
  • 240625Z AUTO 24008KT 10SM -RA FEW013 SCT020 BKN032 OVC039 09/08 A2973 RMK AO2 RAE01DZB01E14RAB14 SLPNO $
  • 240555Z AUTO 25005KT 7SM -RA FEW005 BKN016 BKN022 OVC030 09/08 A2974 RMK AO2 DZE01RAB01E12DZB12E21RAB21 CIG 015 RWY03 SLPNO P0005 60012 T00920081 10162 20085 57025 $
  • 240543Z AUTO 31004KT 6SM -RA BR FEW004 FEW010 BKN016 OVC023 09/08 A2974 RMK AO2 DZE01RAB01E12DZB12E21RAB21 CIG 016V021 BKN V SCT SLPNO $
  • 240535Z AUTO 00000KT 7SM -RA SCT016 BKN021 OVC029 09/08 A2974 RMK AO2 DZE01RAB01E12DZB12E21RAB21 CIG 015V029 BKN V SCT SLPNO $
  • 240455Z AUTO 18007KT 10SM -DZ SCT009 OVC044 09/08 A2975 RMK AO2 RAE11DZB11E17RAB17E28DZB28 SLPNO P0001 T00920076 401930030 $
  • 240435Z AUTO 20006KT 10SM -DZ OVC008 09/08 A2977 RMK AO2 RAE11DZB11E17RAB17E28DZB28 SLPNO $
  • 240425Z AUTO 22006KT 10SM -RA OVC007 09/08 A2978 RMK AO2 RAE11DZB11E17RAB17 SLPNO $
  • 240355Z AUTO 23006KT 10SM -RA OVC006 09/08 A2979 RMK AO2 SLPNO P0003 T00890075 $

TAF AMD TAF KGTB
Valid from the 24 at 03:00 until the 25 at 07:00 UTC


240352Z 2403/2507 26010KT 8000 -SHRA OVC007 QNH2975INS
BECMG 2404/2406 26010KT 8000 -SHRA OVC015 QNH2975INS
BECMG 2406/2407 26010KT 8000 -SHRA BKN015 OVC030 QNH2974INS
BECMG 2413/2414 28010KT 9999 NSW BKN020 OVC040 QNH2980INS
BECMG 2420/2421 30010KT 9999 SCT040 QNH3009INS TX09/2403Z TNM01/2501Z
KZBW FIR / North America



MET'MAP, your aeronautical weather chart ! - Copyright ORBIFLY December 2007 - Disclaimer

ORBIFLY MET'MAP TEAM :

Programming & Development : Alexandra Zaïnal
Original concept : Baudouin d'Aumeries
Technical & hardware support : Manuel Goepfert
Assistance : Marc-Olivier Méhu




SOURCES & CREDITS :

   NOAA       Earth
Advisory